x

North Michigan- Halfway Between North Manitou And Washington Islands. (45002) Wave Buoy

1:50am - Sat 29th Nov 2014 All times are CST. -6 hours from GMT.

  • Sig Wave height 6.9ft
  • Swell Direction
  • Peak Period 7s
  • Average Period 5s
  • Wind
    22mph, 29mph gusts
  • Sea Temp 42°f
  • Air Temp 33°f
  • Sea Pressure 1011.3mb
  • North Michigan- Halfway Between North Manitou And Washington Islands.
  • North Michigan- Halfway Between North Manitou And Washington Islands.

More Historic Weather Station data

Upgrade to MSW Pro to gain access to the past 30 days of data for over 8000 Wavebouys and Weather Stations around the globe.

Join Pro

Comparision Forecast

View Surf forecast
   
Sat 11/29 1:50am 7ft 7s 5s 22 29 mph 1011.3mb 42f 33f
12:50am 7ft 7s 5s 25 29 mph 1011.5mb 42f 32f
Fri 11/28 11:50pm 6ft 7s 5s 25 29 mph 1012.2mb 42f 32f
10:50pm 6ft 6s 5s 25 29 mph 1013.2mb 42f 31f
9:50pm 5.5ft 6s 5s 25 31 mph 1014.1mb 42f 31f
8:50pm 4.5ft 6s 4s 25 29 mph 1014.6mb 42f 31f
7:50pm 4ft 5s 4s 25 29 mph 1015.2mb 42f 31f
6:50pm 3.5ft 5s 4s 22 27 mph 1015.6mb 42f 31f
5:50pm 3.5ft 4s 4s 22 25 mph 1016.4mb 42f 29f
4:50pm 2.5ft 4s 4s 20 25 mph 1016.7mb 42f 29f
3:50pm 1.6ft 4s 4s 7 13 mph 1017.7mb 42f 28f
2:50pm 1.6ft 4s 4s 4 7 mph 1018.3mb 42f 26f
1:50pm 2ft 4s 4s 4 7 mph 1019.4mb 42f 24f
12:50pm 2ft 4s 3s 11 13 mph 1020.1mb 42f 24f
11:50am 2ft 3s 3s 16 22 mph 1021.2mb 42f 25f
10:50am 1.6ft 3s 3s 16 22 mph 1022.2mb 42f 25f
9:50am 1.3ft 3s 3s 13 18 mph 1023.3mb 42f 24f
8:50am 1ft 3s 3s 11 13 mph 1023.5mb 42f 23f
7:50am 1ft 3s 3s 11 16 mph 1024.3mb 42f 22f
6:50am 1ft 2s 3s 9 13 mph 1025.2mb 42f 20f
5:50am 1ft 3s 3s 11 16 mph 1025.7mb 42f 19f
4:50am 1ft 3s 3s 11 13 mph 1026.2mb 42f 19f
3:50am 1ft 3s 3s 13 16 mph 1027.2mb 42f 19f
2:50am 1.3ft 3s 3s 7 13 mph 1027.3mb 42f 19f
1:50am 1.3ft 3s 3s 9 11 mph 1027.2mb 42f 19f
12:50am 1.3ft 4s 3s 9 13 mph 1027.4mb 42f 19f
Thu 11/27 11:50pm 1.6ft 4s 3s 4 11 mph 1027.5mb 42f 18f
10:50pm 2ft 4s 3s 7 11 mph 1027.8mb 42f 19f
9:50pm 2.5ft 4s 4s 11 16 mph 1027.9mb 42f 19f
8:50pm 2.5ft 4s 4s 13 20 mph 1028.3mb 42f 19f
7:50pm 3.5ft 4s 4s 16 22 mph 1028.2mb 42f 19f
6:50pm 3ft 4s 4s 20 25 mph 1028mb 42f 19f
5:50pm 3.5ft 4s 4s 20 25 mph 1028mb 42f 19f
4:50pm 3.5ft 4s 4s 20 27 mph 1027.8mb 42f 20f
3:50pm 3.5ft 5s 4s 22 27 mph 1027.2mb 42f 20f
2:50pm 3.5ft 5s 4s 20 27 mph 1026.8mb 42f 20f
1:50pm 4ft 5s 4s 22 27 mph 1026.3mb 42f 20f
12:50pm 4ft 5s 4s 22 27 mph 1026.3mb 42f 20f
11:50am 4.5ft 5s 4s 22 29 mph 1025.9mb 42f 20f
10:50am 4.5ft 5s 4s 22 29 mph 1026.2mb 42f 20f
9:50am 5ft 5s 5s 22 29 mph 1026.3mb 42f 20f
8:50am 5ft 5s 4s 22 29 mph 1025.8mb 42f 20f
7:50am 4.5ft 5s 4s 25 31 mph 1024.8mb 42f 21f
6:50am 5ft 5s 4s 25 29 mph 1024.4mb 42f 23f
5:50am 5ft 6s 4s 27 34 mph 1023.6mb 42f 25f
4:50am 5ft 5s 4s 27 29 mph 1023.1mb 42f 26f
3:50am 3.5ft 5s 4s 27 31 mph 1022.5mb 42f 27f
2:50am 3ft 4s 4s 27 31 mph 1022.1mb 42f 28f
1:50am 1.3ft 3s 3s 27 31 mph 1021.9mb 42f 29f
12:50am 1ft 3s 3s 13 16 mph 1022mb 42f 28f
Wed 11/26 11:50pm 1ft 3s 3s 11 18 mph 1021.9mb 42f 28f
10:50pm 1.3ft 3s 3s 9 11 mph 1021.7mb 42f 28f
9:50pm 1ft 3s 3s 13 18 mph 1021.4mb 42f 28f
8:50pm 0.7ft  -  3s 11 16 mph 1021.4mb 42f 29f
7:50pm 0.7ft  -  3s 9 13 mph 1021.6mb 42f 29f
6:50pm 0.7ft  -  3s 7 9 mph 1021.6mb 42f 29f
5:50pm 0.7ft  -  3s 9 13 mph 1021.8mb 42f 29f
4:50pm 0.7ft  -  3s 9 13 mph 1022.1mb 42f 30f
3:50pm 1ft 3s 3s 7 9 mph 1022.2mb 42f 28f
2:50pm 1ft 4s 3s 4 7 mph 1021.9mb 42f 28f
1:50pm 1ft 3s 3s 9 13 mph 1021.6mb 42f 28f
12:50pm 1ft 3s 3s 9 13 mph 1021.7mb 42f 27f
11:50am 0.7ft  -  3s 11 16 mph 1021.9mb 42f 28f
10:50am 0.7ft  -  3s 7 11 mph 1022.4mb 42f 28f
9:50am 0.7ft  -  3s 7 9 mph 1022.5mb 42f 28f
8:50am 0.7ft  -  3s 7 9 mph 1022.3mb 42f 28f
7:50am 0.7ft  -  3s 4 9 mph 1022mb 42f 29f
6:50am 0.7ft  -  3s 2 4 mph 1021.8mb 42f 29f
5:50am 0.7ft  -  3s 4 7 mph 1021.5mb 42f 29f
4:50am 1ft 3s 3s 4 9 mph 1021.7mb 42f 29f
3:50am 1ft 3s 3s 4 11 mph 1022.2mb 42f 29f
2:50am 1ft 3s 3s 7 11 mph 1022.4mb 42f 29f
1:50am 1ft 3s 3s 7 11 mph 1022.5mb 42f 29f
12:50am 1ft 5s 3s 9 13 mph 1022.1mb 42f 29f
Tue 11/25 11:50pm 0.7ft  -  3s 7 11 mph 1021.9mb 42f 29f
10:50pm 0.7ft  -  3s 9 13 mph 1021.4mb 42f 29f
9:50pm 1ft 5s 3s 4 9 mph 1021.2mb 42f 28f
8:50pm 1ft 6s 3s 7 11 mph 1020.4mb 42f 28f
7:50pm 1ft 3s 3s 9 13 mph 1020mb 42f 28f
6:50pm 1.3ft 6s 3s 9 11 mph 1019.7mb 42f 28f
5:50pm 1.6ft 4s 3s 9 11 mph 1019.2mb 42f 28f
4:50pm 1.6ft 4s 3s 13 20 mph 1018.6mb 42f 28f
3:50pm 2ft 4s 4s 13 18 mph 1017.9mb 42f 28f
2:50pm 2.5ft 4s 4s 13 16 mph 1016.8mb 42f 28f
1:50pm 3ft 5s 4s 16 20 mph 1015.8mb 42f 29f
12:50pm 3.5ft 5s 4s 18 22 mph 1014.8mb 42f 29f
11:50am 3.5ft 5s 4s 20 27 mph 1014.2mb 42f 29f
10:50am 4.5ft 5s 4s 22 29 mph 1013.3mb 42f 29f
9:50am 4.5ft 5s 4s 25 29 mph 1012.4mb 42f 28f